Time;durP1;ratioP1;P1;durP2;ratioP2;P2;SDS_P1;SDS_P2;PMS_P1;PMS_P2;Temp;Humidity;BMP_temperature;BMP_pressure;BME280_temperature;BME280_humidity;BME280_pressure;Samples;Min_cycle;Max_cycle;Signal;HPM_P1;HPM_P2
2022/07/09 00:01:02;;;;;;;6.67;3.80;;;;;;;;;;5034642;28;20381;-75
2022/07/09 00:03:29;;;;;;;9.67;3.83;;;;;;;;;;5035050;28;20398;-75
2022/07/09 00:05:55;;;;;;;4.40;3.23;;;;;;;;;;5035345;28;20453;-75
2022/07/09 00:08:21;;;;;;;5.00;3.37;;;;;;;;;;5035145;28;20427;-75
2022/07/09 00:10:47;;;;;;;6.27;3.70;;;;;;;;;;5035200;28;20388;-75
2022/07/09 00:13:13;;;;;;;6.00;3.90;;;;;;;;;;5034740;28;20380;-75
2022/07/09 00:15:39;;;;;;;4.10;3.57;;;;;;;;;;5035024;28;20441;-75
2022/07/09 00:18:05;;;;;;;10.10;3.00;;;;;;;;;;5033708;28;20496;-75
2022/07/09 00:20:31;;;;;;;6.60;3.50;;;;;;;;;;5035221;28;20471;-75
2022/07/09 00:22:57;;;;;;;3.90;3.40;;;;;;;;;;5034718;28;20902;-75
2022/07/09 00:25:23;;;;;;;9.87;3.43;;;;;;;;;;5035100;28;20550;-75
2022/07/09 00:27:49;;;;;;;5.83;3.23;;;;;;;;;;5035105;28;20745;-74
2022/07/09 00:30:15;;;;;;;8.00;3.47;;;;;;;;;;5034972;28;20384;-75
2022/07/09 00:32:41;;;;;;;5.00;3.50;;;;;;;;;;5034728;28;20535;-74
2022/07/09 00:35:07;;;;;;;6.17;3.37;;;;;;;;;;5034202;28;20516;-75
2022/07/09 00:37:33;;;;;;;4.90;3.33;;;;;;;;;;5034645;28;20506;-75
2022/07/09 00:39:59;;;;;;;4.03;3.37;;;;;;;;;;5034609;28;20896;-75
2022/07/09 00:42:25;;;;;;;5.50;3.00;;;;;;;;;;5034615;28;20384;-74
2022/07/09 00:44:51;;;;;;;5.50;3.30;;;;;;;;;;5032927;28;20418;-75
2022/07/09 00:47:17;;;;;;;6.00;3.70;;;;;;;;;;5033304;28;20494;-75
2022/07/09 00:49:44;;;;;;;4.20;3.80;;;;;;;;;;5034574;28;20384;-74
2022/07/09 00:52:12;;;;;;;7.03;3.00;;;;;;;;;;5034484;28;20914;-75
2022/07/09 00:54:38;;;;;;;4.67;3.43;;;;;;;;;;5033880;28;20417;-75
2022/07/09 00:57:06;;;;;;;11.47;3.87;;;;;;;;;;5034154;28;20786;-75
2022/07/09 00:59:33;;;;;;;4.57;3.87;;;;;;;;;;5034271;28;20499;-74
2022/07/09 01:02:00;;;;;;;10.80;3.77;;;;;;;;;;5034223;28;20410;-75
2022/07/09 01:04:26;;;;;;;7.77;3.90;;;;;;;;;;5033846;28;20917;-75
2022/07/09 01:06:52;;;;;;;5.50;3.73;;;;;;;;;;5032933;28;21019;-75
2022/07/09 01:09:18;;;;;;;8.13;3.83;;;;;;;;;;5033764;28;20414;-75
2022/07/09 01:11:44;;;;;;;7.37;4.07;;;;;;;;;;5033195;28;20478;-75
2022/07/09 01:14:10;;;;;;;7.70;3.50;;;;;;;;;;5033409;28;20392;-76
2022/07/09 01:16:40;;;;;;;4.87;3.20;;;;;;;;;;5033717;28;20560;-75
2022/07/09 01:19:06;;;;;;;10.63;4.00;;;;;;;;;;5033812;28;20391;-75
2022/07/09 01:21:32;;;;;;;4.00;3.60;;;;;;;;;;5033636;28;20408;-75
2022/07/09 01:23:58;;;;;;;4.43;3.40;;;;;;;;;;5033610;28;20400;-75
2022/07/09 01:26:24;;;;;;;6.20;3.90;;;;;;;;;;5033810;28;20816;-75
2022/07/09 01:28:51;;;;;;;8.77;4.20;;;;;;;;;;5033710;28;20471;-75
2022/07/09 01:31:17;;;;;;;6.87;3.90;;;;;;;;;;5033479;28;20431;-75
2022/07/09 01:33:49;;;;;;;8.70;3.93;;;;;;;;;;5066619;27;20602;-74
2022/07/09 01:36:17;;;;;;;5.63;3.67;;;;;;;;;;5066835;28;20446;-74
2022/07/09 01:38:42;;;;;;;6.80;3.47;;;;;;;;;;5048855;28;20468;-75
2022/07/09 01:41:08;;;;;;;6.17;3.47;;;;;;;;;;5066762;28;20870;-75
2022/07/09 01:43:35;;;;;;;4.97;3.47;;;;;;;;;;5066179;28;20415;-75
2022/07/09 01:46:01;;;;;;;5.30;3.73;;;;;;;;;;5065192;28;20424;-75
2022/07/09 01:48:29;;;;;;;3.53;3.07;;;;;;;;;;5066724;28;20762;-74
2022/07/09 01:50:55;;;;;;;3.70;3.40;;;;;;;;;;5066581;28;20382;-74
2022/07/09 01:53:21;;;;;;;4.90;3.13;;;;;;;;;;5065906;28;20533;-74
2022/07/09 01:55:47;;;;;;;8.90;3.70;;;;;;;;;;5064857;28;20446;-75
2022/07/09 01:58:13;;;;;;;5.97;3.67;;;;;;;;;;5066363;28;20412;-75
2022/07/09 02:00:39;;;;;;;7.03;3.60;;;;;;;;;;5066310;28;20412;-74
2022/07/09 02:03:05;;;;;;;6.50;4.53;;;;;;;;;;5065873;28;20408;-74
2022/07/09 02:05:31;;;;;;;11.70;4.27;;;;;;;;;;5064972;28;20944;-77
2022/07/09 02:07:57;;;;;;;8.53;3.57;;;;;;;;;;5048332;28;20478;-75
2022/07/09 02:10:23;;;;;;;6.50;3.93;;;;;;;;;;5066280;28;20430;-75
2022/07/09 02:12:49;;;;;;;5.23;3.80;;;;;;;;;;5066186;28;20926;-75
2022/07/09 02:15:15;;;;;;;4.37;3.73;;;;;;;;;;5065774;28;20555;-74
2022/07/09 02:17:41;;;;;;;4.23;3.13;;;;;;;;;;5066134;28;20560;-74
2022/07/09 02:20:08;;;;;;;6.13;3.90;;;;;;;;;;5065955;28;20530;-74
2022/07/09 02:22:34;;;;;;;6.10;4.17;;;;;;;;;;5066085;28;20427;-74
2022/07/09 02:25:00;;;;;;;9.33;4.67;;;;;;;;;;5065797;28;20960;-75
2022/07/09 02:27:26;;;;;;;11.10;3.87;;;;;;;;;;5066305;28;20424;-74
2022/07/09 02:29:52;;;;;;;4.50;4.10;;;;;;;;;;5065894;28;20435;-74
2022/07/09 02:32:18;;;;;;;5.83;4.10;;;;;;;;;;5065700;28;20507;-74
2022/07/09 02:34:44;;;;;;;8.80;4.60;;;;;;;;;;5065416;28;20390;-75
2022/07/09 02:37:10;;;;;;;7.47;4.23;;;;;;;;;;5065935;28;20748;-75
2022/07/09 02:39:36;;;;;;;6.90;4.77;;;;;;;;;;5065928;28;20416;-75
2022/07/09 02:42:02;;;;;;;5.53;4.40;;;;;;;;;;5065475;28;20464;-75
2022/07/09 02:44:29;;;;;;;5.93;3.80;;;;;;;;;;5055845;28;20403;-75
2022/07/09 02:46:55;;;;;;;9.97;4.87;;;;;;;;;;5052163;28;20460;-75
2022/07/09 02:49:23;;;;;;;7.50;5.60;;;;;;;;;;5051936;28;20420;-75
2022/07/09 02:51:49;;;;;;;8.07;5.10;;;;;;;;;;5051911;28;20452;-77
2022/07/09 02:54:15;;;;;;;9.47;5.40;;;;;;;;;;5050360;28;20420;-75
2022/07/09 02:56:41;;;;;;;6.67;4.50;;;;;;;;;;5050793;28;20784;-75
2022/07/09 02:59:07;;;;;;;7.30;4.70;;;;;;;;;;5052107;28;20404;-75
2022/07/09 03:01:33;;;;;;;4.90;4.10;;;;;;;;;;5051995;28;20403;-75
2022/07/09 03:03:59;;;;;;;7.83;5.33;;;;;;;;;;5051680;28;20417;-75
2022/07/09 03:06:25;;;;;;;8.70;4.97;;;;;;;;;;5050579;28;20404;-75
2022/07/09 03:08:51;;;;;;;6.20;4.90;;;;;;;;;;5051997;28;20412;-75
2022/07/09 03:11:17;;;;;;;6.63;5.00;;;;;;;;;;5051711;28;20411;-75
2022/07/09 03:13:43;;;;;;;6.77;4.67;;;;;;;;;;5051268;28;20941;-75
2022/07/09 03:16:09;;;;;;;8.00;5.20;;;;;;;;;;5051503;28;20419;-75
2022/07/09 03:18:37;;;;;;;5.47;4.97;;;;;;;;;;5033794;28;20892;-75
2022/07/09 03:21:03;;;;;;;8.20;5.17;;;;;;;;;;5051639;28;20486;-75
2022/07/09 03:23:29;;;;;;;8.07;4.70;;;;;;;;;;5051257;28;20409;-75
2022/07/09 03:25:55;;;;;;;5.67;5.17;;;;;;;;;;5051573;28;20443;-75
2022/07/09 03:28:21;;;;;;;8.93;4.90;;;;;;;;;;5051499;28;20379;-76
2022/07/09 03:30:47;;;;;;;7.03;4.53;;;;;;;;;;5051472;28;20983;-75
2022/07/09 03:33:13;;;;;;;5.93;5.33;;;;;;;;;;5050887;28;20612;-75
2022/07/09 03:35:39;;;;;;;8.13;4.87;;;;;;;;;;5051374;28;20440;-75
2022/07/09 03:38:05;;;;;;;6.80;5.30;;;;;;;;;;5050097;28;20481;-75
2022/07/09 03:40:31;;;;;;;9.57;5.23;;;;;;;;;;5051234;28;20410;-75
2022/07/09 03:42:58;;;;;;;8.13;5.40;;;;;;;;;;5050144;28;20384;-75
2022/07/09 03:45:24;;;;;;;10.70;5.60;;;;;;;;;;5050080;28;20432;-75
2022/07/09 03:47:50;;;;;;;9.60;4.77;;;;;;;;;;5051297;28;20411;-74
2022/07/09 03:50:16;;;;;;;9.67;4.90;;;;;;;;;;5049795;28;20399;-75
2022/07/09 03:52:42;;;;;;;6.17;5.40;;;;;;;;;;5050926;28;20449;-75
2022/07/09 03:55:08;;;;;;;8.83;6.27;;;;;;;;;;5049667;28;20776;-75
2022/07/09 03:57:34;;;;;;;6.00;5.10;;;;;;;;;;5050894;28;20507;-75
2022/07/09 04:00:01;;;;;;;7.07;5.20;;;;;;;;;;5050967;28;20383;-75
2022/07/09 04:02:27;;;;;;;9.60;4.77;;;;;;;;;;5051000;28;20412;-75
2022/07/09 04:04:56;;;;;;;8.70;5.37;;;;;;;;;;5050478;28;20412;-75
2022/07/09 04:07:22;;;;;;;7.27;4.67;;;;;;;;;;5051102;28;20518;-74
2022/07/09 04:09:48;;;;;;;9.00;4.80;;;;;;;;;;5050851;28;20391;-75
2022/07/09 04:12:14;;;;;;;6.93;4.80;;;;;;;;;;5050742;28;20466;-75
2022/07/09 04:14:40;;;;;;;4.80;4.40;;;;;;;;;;5049120;28;20415;-75
2022/07/09 04:17:06;;;;;;;6.80;4.50;;;;;;;;;;5049403;28;20387;-75
2022/07/09 04:19:32;;;;;;;11.97;5.63;;;;;;;;;;5049469;28;20417;-76
2022/07/09 04:21:58;;;;;;;9.00;5.40;;;;;;;;;;5050627;28;20432;-75
2022/07/09 04:24:24;;;;;;;8.30;5.30;;;;;;;;;;5050251;28;20412;-74
2022/07/09 04:26:50;;;;;;;7.50;5.60;;;;;;;;;;5050420;28;20462;-74
2022/07/09 04:29:16;;;;;;;7.50;5.47;;;;;;;;;;5050463;28;20454;-76
2022/07/09 04:31:42;;;;;;;14.10;5.77;;;;;;;;;;5050377;28;20411;-74
2022/07/09 04:34:08;;;;;;;7.73;5.50;;;;;;;;;;5050485;28;20488;-74
2022/07/09 04:36:34;;;;;;;6.47;5.13;;;;;;;;;;5050677;28;20896;-74
2022/07/09 04:39:00;;;;;;;6.13;5.53;;;;;;;;;;5050554;28;20408;-75
2022/07/09 04:41:26;;;;;;;8.03;5.63;;;;;;;;;;5049290;28;20401;-75
2022/07/09 04:43:52;;;;;;;8.27;6.23;;;;;;;;;;5049940;28;20535;-76
2022/07/09 04:46:19;;;;;;;10.47;6.57;;;;;;;;;;5048996;28;20498;-75
2022/07/09 04:48:45;;;;;;;6.37;5.00;;;;;;;;;;5050570;28;20889;-74
2022/07/09 04:51:11;;;;;;;11.40;5.97;;;;;;;;;;5050047;28;20423;-75
2022/07/09 04:53:37;;;;;;;11.83;6.37;;;;;;;;;;5050082;28;20496;-74
2022/07/09 04:56:03;;;;;;;14.80;7.10;;;;;;;;;;5050255;28;20505;-74
2022/07/09 04:58:29;;;;;;;6.40;5.90;;;;;;;;;;5050050;28;20405;-74
2022/07/09 05:00:55;;;;;;;7.20;5.83;;;;;;;;;;5049940;28;20893;-76
2022/07/09 05:03:21;;;;;;;10.80;6.27;;;;;;;;;;5049832;28;20420;-75
2022/07/09 05:05:47;;;;;;;16.77;7.40;;;;;;;;;;5050230;28;20946;-74
2022/07/09 05:08:13;;;;;;;9.80;7.43;;;;;;;;;;5049758;28;20405;-74
2022/07/09 05:10:39;;;;;;;9.10;7.87;;;;;;;;;;5050080;28;20828;-74
2022/07/09 05:13:05;;;;;;;8.93;8.10;;;;;;;;;;5049573;28;20555;-75
2022/07/09 05:15:32;;;;;;;10.90;8.30;;;;;;;;;;5049788;28;20415;-75
2022/07/09 05:17:58;;;;;;;11.97;9.10;;;;;;;;;;5049983;28;20417;-75
2022/07/09 05:20:24;;;;;;;12.80;9.13;;;;;;;;;;5049920;28;20392;-75
2022/07/09 05:22:50;;;;;;;11.60;8.70;;;;;;;;;;5050027;28;20447;-75
2022/07/09 05:25:16;;;;;;;16.50;10.50;;;;;;;;;;5049392;28;20435;-75
2022/07/09 05:27:46;;;;;;;13.07;10.90;;;;;;;;;;5049903;28;20840;-75
2022/07/09 05:30:14;;;;;;;11.17;10.07;;;;;;;;;;5050017;28;20420;-75
2022/07/09 05:32:41;;;;;;;11.40;9.53;;;;;;;;;;5049821;28;20492;-75
2022/07/09 05:35:07;;;;;;;13.97;9.53;;;;;;;;;;5049345;28;20403;-75
2022/07/09 05:37:34;;;;;;;10.67;9.70;;;;;;;;;;5049615;28;20395;-75
2022/07/09 05:40:05;;;;;;;17.27;10.33;;;;;;;;;;5048151;28;20400;-75
2022/07/09 05:42:32;;;;;;;11.80;9.70;;;;;;;;;;5048466;28;20421;-75
2022/07/09 05:44:58;;;;;;;11.20;10.20;;;;;;;;;;5049309;28;20793;-75
2022/07/09 05:47:24;;;;;;;10.40;9.40;;;;;;;;;;5049820;28;20440;-75
2022/07/09 05:49:50;;;;;;;13.10;10.30;;;;;;;;;;5049595;28;20455;-75
2022/07/09 05:52:16;;;;;;;9.60;8.70;;;;;;;;;;5048284;28;20930;-74
2022/07/09 05:54:42;;;;;;;11.50;9.60;;;;;;;;;;5049124;28;20441;-75
2022/07/09 05:57:08;;;;;;;10.93;9.70;;;;;;;;;;5049481;28;20382;-74
2022/07/09 05:59:34;;;;;;;11.40;8.97;;;;;;;;;;5049174;28;20380;-75
2022/07/09 06:02:02;;;;;;;10.93;9.07;;;;;;;;;;5049269;28;20487;-75
2022/07/09 06:04:28;;;;;;;11.10;9.30;;;;;;;;;;5048908;28;20423;-76
2022/07/09 06:06:54;;;;;;;10.83;8.83;;;;;;;;;;5049138;28;20436;-75
2022/07/09 06:09:20;;;;;;;14.73;8.30;;;;;;;;;;5049204;28;20739;-75
2022/07/09 06:11:46;;;;;;;11.43;8.40;;;;;;;;;;5049036;28;20416;-75
2022/07/09 06:14:12;;;;;;;10.80;8.23;;;;;;;;;;5047608;28;20817;-75
2022/07/09 06:16:38;;;;;;;14.60;8.90;;;;;;;;;;5049091;28;20403;-75
2022/07/09 06:19:04;;;;;;;9.17;8.20;;;;;;;;;;5050140;28;20851;-74
2022/07/09 06:21:30;;;;;;;11.30;10.10;;;;;;;;;;5052509;28;20403;-75
2022/07/09 06:23:56;;;;;;;12.50;8.13;;;;;;;;;;5052266;28;20757;-75
2022/07/09 06:26:22;;;;;;;13.90;10.80;;;;;;;;;;5052600;28;20489;-75
2022/07/09 06:28:49;;;;;;;15.93;10.50;;;;;;;;;;5052678;28;20849;-75
2022/07/09 06:31:15;;;;;;;17.13;11.77;;;;;;;;;;5052580;28;20426;-75
2022/07/09 06:33:41;;;;;;;14.67;12.77;;;;;;;;;;5051926;27;20951;-75
2022/07/09 06:36:07;;;;;;;12.80;11.60;;;;;;;;;;5052377;28;20455;-75
2022/07/09 06:39:44;;;;;;;14.53;12.23;;;;;;;;;;5052407;28;20412;-75
2022/07/09 06:41:19;;;;;;;15.83;12.73;;;;;;;;;;5052439;28;20781;-75
2022/07/09 06:43:44;;;;;;;11.97;10.60;;;;;;;;;;5051922;28;20388;-75
2022/07/09 06:46:10;;;;;;;14.20;12.80;;;;;;;;;;5052367;28;20411;-75
2022/07/09 06:48:36;;;;;;;12.70;11.47;;;;;;;;;;5052407;28;20546;-75
2022/07/09 06:51:02;;;;;;;12.97;11.77;;;;;;;;;;5052227;28;20888;-75
2022/07/09 06:53:28;;;;;;;13.07;11.53;;;;;;;;;;5051788;28;20435;-75
2022/07/09 06:55:54;;;;;;;11.83;10.63;;;;;;;;;;5052026;28;20529;-75
2022/07/09 06:58:20;;;;;;;12.73;9.80;;;;;;;;;;5052329;28;20420;-75
2022/07/09 07:00:46;;;;;;;10.73;9.60;;;;;;;;;;5052275;28;20379;-74
2022/07/09 07:03:12;;;;;;;14.03;10.07;;;;;;;;;;5051541;28;20416;-75
2022/07/09 07:05:38;;;;;;;9.67;8.67;;;;;;;;;;5051962;28;20862;-75
2022/07/09 07:08:04;;;;;;;8.13;6.90;;;;;;;;;;5051574;28;20392;-76
2022/07/09 07:10:30;;;;;;;9.13;7.03;;;;;;;;;;5050525;28;20519;-75
2022/07/09 07:12:57;;;;;;;12.40;9.87;;;;;;;;;;5051379;28;20559;-75
2022/07/09 07:15:22;;;;;;;12.27;8.17;;;;;;;;;;5051704;28;20428;-75
2022/07/09 07:17:48;;;;;;;8.27;7.57;;;;;;;;;;5051724;28;20773;-75
2022/07/09 07:20:17;;;;;;;11.23;7.77;;;;;;;;;;5051327;28;20409;-75
2022/07/09 07:22:43;;;;;;;6.63;5.37;;;;;;;;;;5050349;28;20872;-75
2022/07/09 07:25:09;;;;;;;8.40;4.60;;;;;;;;;;5051046;28;20436;-75
2022/07/09 07:27:35;;;;;;;7.93;3.93;;;;;;;;;;5051513;28;20421;-75
2022/07/09 07:30:01;;;;;;;10.33;5.90;;;;;;;;;;5051515;28;20423;-75
2022/07/09 07:32:28;;;;;;;6.17;4.33;;;;;;;;;;5051118;28;20968;-75
2022/07/09 07:34:54;;;;;;;8.17;4.00;;;;;;;;;;5049905;28;20428;-74
2022/07/09 07:37:20;;;;;;;4.63;3.03;;;;;;;;;;5050347;28;20412;-75
2022/07/09 07:39:47;;;;;;;6.07;2.87;;;;;;;;;;5051415;28;20424;-75
2022/07/09 07:42:15;;;;;;;4.13;2.67;;;;;;;;;;5051348;28;20723;-75
2022/07/09 07:44:41;;;;;;;4.00;2.50;;;;;;;;;;5050858;28;20433;-76
2022/07/09 07:47:07;;;;;;;3.37;2.40;;;;;;;;;;5051175;28;20917;-75
2022/07/09 07:49:33;;;;;;;2.70;2.37;;;;;;;;;;5051362;28;20395;-75
2022/07/09 07:51:59;;;;;;;3.00;2.13;;;;;;;;;;5051351;28;20468;-75
2022/07/09 07:54:25;;;;;;;3.00;2.53;;;;;;;;;;5050991;28;20409;-75
2022/07/09 07:56:51;;;;;;;5.00;2.57;;;;;;;;;;5051246;28;20425;-76
2022/07/09 07:59:17;;;;;;;3.23;2.13;;;;;;;;;;5051372;28;20404;-75
2022/07/09 08:01:43;;;;;;;4.53;2.60;;;;;;;;;;5049866;28;20439;-75
2022/07/09 08:04:10;;;;;;;3.67;2.33;;;;;;;;;;5049541;28;20950;-75
2022/07/09 08:06:35;;;;;;;3.03;2.10;;;;;;;;;;5050776;28;20847;-76
2022/07/09 08:09:03;;;;;;;3.50;2.00;;;;;;;;;;5033067;28;20425;-75
2022/07/09 08:11:29;;;;;;;4.50;1.80;;;;;;;;;;5051028;28;20427;-76
2022/07/09 08:13:55;;;;;;;4.70;2.20;;;;;;;;;;5050470;28;20967;-76
2022/07/09 08:16:21;;;;;;;3.03;1.80;;;;;;;;;;5050678;28;20462;-76
2022/07/09 08:18:47;;;;;;;2.53;1.80;;;;;;;;;;5050790;28;20757;-75
2022/07/09 08:21:14;;;;;;;2.60;1.80;;;;;;;;;;5050618;28;20412;-76
2022/07/09 08:23:53;;;;;;;2.40;1.83;;;;;;;;;;5050140;28;20420;-76
2022/07/09 08:26:21;;;;;;;2.90;1.60;;;;;;;;;;5050660;28;20441;-76
2022/07/09 08:28:47;;;;;;;2.50;1.93;;;;;;;;;;5050543;28;20905;-75
2022/07/09 08:31:13;;;;;;;2.47;1.50;;;;;;;;;;5049416;28;20519;-75
2022/07/09 08:33:39;;;;;;;3.33;1.50;;;;;;;;;;5050096;28;20496;-75
2022/07/09 08:36:05;;;;;;;1.40;1.30;;;;;;;;;;5050500;28;20526;-75
2022/07/09 08:38:31;;;;;;;1.43;1.23;;;;;;;;;;5050464;28;20417;-76
2022/07/09 08:40:58;;;;;;;3.73;1.37;;;;;;;;;;5048952;28;20405;-75
2022/07/09 08:43:26;;;;;;;5.40;1.67;;;;;;;;;;5049879;28;20821;-74
2022/07/09 08:45:54;;;;;;;3.50;1.20;;;;;;;;;;5050474;28;20930;-75
2022/07/09 08:48:20;;;;;;;1.37;1.27;;;;;;;;;;5050551;28;20419;-76
2022/07/09 08:50:46;;;;;;;2.00;1.37;;;;;;;;;;5050265;28;20834;-77
2022/07/09 08:53:13;;;;;;;3.10;1.10;;;;;;;;;;5049805;28;20554;-76
2022/07/09 08:55:39;;;;;;;3.90;1.47;;;;;;;;;;5050085;28;20435;-76
2022/07/09 08:58:05;;;;;;;1.80;1.13;;;;;;;;;;5050164;28;20859;-75
2022/07/09 09:00:32;;;;;;;1.00;0.90;;;;;;;;;;5050200;28;20584;-76
2022/07/09 09:02:58;;;;;;;2.70;1.53;;;;;;;;;;5049855;28;20768;-75
2022/07/09 09:05:24;;;;;;;2.47;1.10;;;;;;;;;;5050251;28;20443;-76
2022/07/09 09:07:50;;;;;;;2.40;1.10;;;;;;;;;;5050212;28;20474;-76
2022/07/09 09:10:22;;;;;;;2.23;1.10;;;;;;;;;;5050095;28;20465;-75
2022/07/09 09:12:49;;;;;;;1.43;1.20;;;;;;;;;;5050082;28;20476;-75
2022/07/09 09:15:21;;;;;;;1.53;1.20;;;;;;;;;;5049634;28;20425;-75
2022/07/09 09:17:47;;;;;;;3.43;1.03;;;;;;;;;;5050063;28;20409;-75
2022/07/09 09:20:16;;;;;;;1.40;1.00;;;;;;;;;;5049871;28;20939;-75
2022/07/09 09:22:54;;;;;;;1.63;1.00;;;;;;;;;;5048556;28;20550;-75
2022/07/09 09:25:20;;;;;;;1.80;1.20;;;;;;;;;;5049637;28;20429;-76
2022/07/09 09:27:56;;;;;;;2.40;1.20;;;;;;;;;;5049910;28;20817;-75
2022/07/09 09:30:23;;;;;;;1.90;1.40;;;;;;;;;;5049651;28;20420;-75
2022/07/09 09:33:02;;;;;;;1.87;1.40;;;;;;;;;;5049435;28;20471;-75
2022/07/09 09:35:29;;;;;;;2.07;1.40;;;;;;;;;;5049487;28;20799;-76
2022/07/09 09:37:55;;;;;;;2.50;1.03;;;;;;;;;;5049659;28;20500;-76
2022/07/09 09:40:21;;;;;;;2.10;0.97;;;;;;;;;;5049560;28;20422;-76
2022/07/09 09:42:48;;;;;;;1.20;1.10;;;;;;;;;;5049465;28;20423;-75
2022/07/09 09:45:15;;;;;;;3.33;1.50;;;;;;;;;;5049050;28;20431;-75
2022/07/09 09:47:48;;;;;;;1.13;0.90;;;;;;;;;;5049857;28;20419;-76
2022/07/09 09:50:33;;;;;;;1.60;1.00;;;;;;;;;;5049916;28;20491;-76
2022/07/09 09:52:59;;;;;;;3.93;0.80;;;;;;;;;;5049854;28;20464;-76
2022/07/09 09:55:25;;;;;;;1.53;1.20;;;;;;;;;;5053071;28;20445;-75
2022/07/09 09:57:52;;;;;;;1.73;1.17;;;;;;;;;;5053765;28;20912;-75
2022/07/09 10:00:18;;;;;;;1.30;1.20;;;;;;;;;;5053576;28;20503;-75
2022/07/09 10:02:45;;;;;;;1.53;1.10;;;;;;;;;;5053443;28;20414;-76
2022/07/09 10:05:12;;;;;;;3.83;1.30;;;;;;;;;;5052899;28;20456;-76
2022/07/09 10:07:39;;;;;;;1.10;0.97;;;;;;;;;;5053146;28;20799;-76
2022/07/09 10:10:06;;;;;;;1.27;1.17;;;;;;;;;;5053250;28;20776;-76
2022/07/09 10:12:35;;;;;;;1.77;1.00;;;;;;;;;;5053328;28;20470;-76
2022/07/09 10:15:01;;;;;;;0.83;0.77;;;;;;;;;;5052550;28;20478;-75
2022/07/09 10:17:27;;;;;;;1.63;1.10;;;;;;;;;;5052892;28;20465;-76
2022/07/09 10:19:57;;;;;;;2.03;1.03;;;;;;;;;;5052968;28;20414;-76
2022/07/09 10:22:35;;;;;;;5.40;1.30;;;;;;;;;;5053033;28;20418;-76
2022/07/09 10:25:01;;;;;;;3.60;1.10;;;;;;;;;;5052576;28;20863;-75
2022/07/09 10:27:27;;;;;;;4.07;1.80;;;;;;;;;;5052801;28;20795;-76
2022/07/09 10:29:58;;;;;;;1.63;1.13;;;;;;;;;;5052895;28;20469;-75
2022/07/09 10:32:25;;;;;;;3.97;1.10;;;;;;;;;;5052789;28;20476;-75
2022/07/09 10:34:56;;;;;;;3.20;1.30;;;;;;;;;;5052540;28;20425;-76
2022/07/09 10:37:41;;;;;;;1.93;1.20;;;;;;;;;;5052744;28;20424;-76
2022/07/09 10:40:14;;;;;;;1.67;1.30;;;;;;;;;;5052769;28;20397;-75
2022/07/09 10:42:41;;;;;;;1.03;0.90;;;;;;;;;;5052945;28;20406;-75
2022/07/09 10:45:23;;;;;;;2.03;1.03;;;;;;;;;;5052575;28;20421;-76
2022/07/09 10:47:56;;;;;;;2.60;1.13;;;;;;;;;;5052766;28;20786;-76
2022/07/09 10:50:22;;;;;;;2.60;1.00;;;;;;;;;;5052774;28;20405;-76
2022/07/09 10:52:49;;;;;;;1.30;0.90;;;;;;;;;;5052556;28;20944;-76
2022/07/09 10:55:22;;;;;;;1.73;1.07;;;;;;;;;;5052289;28;20431;-76
2022/07/09 10:57:48;;;;;;;5.13;1.10;;;;;;;;;;5052545;28;20405;-76
2022/07/09 11:00:18;;;;;;;1.57;1.10;;;;;;;;;;5052534;28;20402;-75
2022/07/09 11:02:53;;;;;;;2.60;1.50;;;;;;;;;;5052755;28;20423;-75
2022/07/09 11:05:19;;;;;;;2.30;1.23;;;;;;;;;;5051920;28;20932;-75
2022/07/09 11:07:54;;;;;;;1.87;1.40;;;;;;;;;;5052400;28;20424;-75
2022/07/09 11:10:20;;;;;;;5.57;2.10;;;;;;;;;;5052476;28;20492;-75
2022/07/09 11:12:50;;;;;;;4.80;1.83;;;;;;;;;;5052330;28;20464;-75
2022/07/09 11:15:19;;;;;;;4.80;1.17;;;;;;;;;;5051888;28;20429;-76
2022/07/09 11:17:54;;;;;;;1.80;1.50;;;;;;;;;;5052198;28;20423;-75
2022/07/09 11:20:20;;;;;;;7.50;1.40;;;;;;;;;;5052225;28;20405;-75
2022/07/09 11:22:49;;;;;;;4.27;1.50;;;;;;;;;;5052163;28;20413;-76
2022/07/09 11:25:15;;;;;;;1.67;1.20;;;;;;;;;;5050773;28;20456;-75
2022/07/09 11:27:41;;;;;;;1.27;1.17;;;;;;;;;;5052060;28;20882;-76
2022/07/09 11:30:12;;;;;;;1.40;1.30;;;;;;;;;;5051802;28;20777;-75
2022/07/09 11:32:38;;;;;;;3.97;1.70;;;;;;;;;;5051829;28;20545;-76
2022/07/09 11:35:04;;;;;;;6.10;1.83;;;;;;;;;;5051489;28;20429;-76
2022/07/09 11:37:30;;;;;;;2.50;1.40;;;;;;;;;;5051827;28;20770;-77
2022/07/09 11:39:56;;;;;;;2.23;1.20;;;;;;;;;;5051734;28;20408;-76
2022/07/09 11:42:22;;;;;;;4.87;1.90;;;;;;;;;;5051838;28;20442;-76
2022/07/09 11:45:02;;;;;;;2.50;1.20;;;;;;;;;;5051606;28;20429;-75
2022/07/09 11:47:34;;;;;;;2.13;1.60;;;;;;;;;;5052105;28;20404;-76
2022/07/09 11:50:06;;;;;;;3.17;1.90;;;;;;;;;;5051731;28;20417;-76
2022/07/09 11:52:33;;;;;;;3.70;1.73;;;;;;;;;;5051563;28;20497;-76
2022/07/09 11:55:00;;;;;;;3.67;1.90;;;;;;;;;;5051189;28;20428;-76
2022/07/09 11:57:27;;;;;;;3.00;1.60;;;;;;;;;;5051678;28;20404;-76
2022/07/09 11:59:53;;;;;;;3.10;1.50;;;;;;;;;;5051843;28;20409;-76
2022/07/09 12:02:32;;;;;;;3.67;1.77;;;;;;;;;;5050170;28;20509;-76
2022/07/09 12:04:59;;;;;;;2.50;2.30;;;;;;;;;;5051318;28;20856;-75
2022/07/09 12:07:25;;;;;;;3.10;1.90;;;;;;;;;;5050329;28;20836;-76
2022/07/09 12:10:01;;;;;;;4.47;1.77;;;;;;;;;;5051374;28;20433;-76
2022/07/09 12:12:27;;;;;;;2.50;1.50;;;;;;;;;;5051317;28;20455;-76
2022/07/09 12:14:54;;;;;;;2.17;2.00;;;;;;;;;;5051000;28;20402;-76
2022/07/09 12:17:24;;;;;;;4.00;2.30;;;;;;;;;;5050387;28;20407;-76
2022/07/09 12:19:50;;;;;;;2.30;2.10;;;;;;;;;;5051233;28;20433;-76
2022/07/09 12:22:16;;;;;;;2.33;2.13;;;;;;;;;;5051077;28;20769;-76
2022/07/09 12:24:42;;;;;;;3.77;2.80;;;;;;;;;;5050638;28;20465;-76
2022/07/09 12:27:09;;;;;;;4.67;2.20;;;;;;;;;;5051115;28;20441;-75
2022/07/09 12:29:35;;;;;;;3.00;2.20;;;;;;;;;;5051004;28;20889;-76
2022/07/09 12:32:01;;;;;;;4.33;2.47;;;;;;;;;;5050860;28;20428;-75
2022/07/09 12:34:27;;;;;;;5.70;2.33;;;;;;;;;;5049586;28;20508;-76
2022/07/09 12:36:53;;;;;;;5.43;2.27;;;;;;;;;;5050799;28;20467;-76
2022/07/09 12:39:19;;;;;;;6.40;2.17;;;;;;;;;;5051173;28;20518;-76
2022/07/09 12:41:45;;;;;;;5.03;3.23;;;;;;;;;;5050965;28;20445;-76
2022/07/09 12:44:11;;;;;;;4.00;2.43;;;;;;;;;;5050447;28;20409;-76
2022/07/09 12:46:37;;;;;;;5.33;2.03;;;;;;;;;;5050644;28;20475;-76
2022/07/09 12:49:03;;;;;;;2.33;2.13;;;;;;;;;;5050511;28;20774;-76
2022/07/09 12:51:29;;;;;;;2.37;2.17;;;;;;;;;;5051049;28;20417;-76
2022/07/09 12:53:55;;;;;;;2.87;2.57;;;;;;;;;;5050479;28;20463;-76
2022/07/09 12:56:21;;;;;;;5.97;2.23;;;;;;;;;;5050643;28;20475;-76
2022/07/09 12:58:47;;;;;;;3.30;2.20;;;;;;;;;;5050552;28;20416;-76
2022/07/09 13:01:14;;;;;;;4.13;2.50;;;;;;;;;;5050675;28;20542;-76
2022/07/09 13:03:41;;;;;;;3.90;2.50;;;;;;;;;;5049014;28;20776;-76
2022/07/09 13:06:30;;;;;;;5.97;3.00;;;;;;;;;;5050440;28;20448;-76
2022/07/09 13:08:53;;;;;;;2.50;2.30;;;;;;;;;;5050261;27;20777;-76
2022/07/09 13:11:19;;;;;;;4.30;2.57;;;;;;;;;;5050469;28;20416;-76
2022/07/09 13:13:45;;;;;;;3.13;2.80;;;;;;;;;;5050053;28;20519;-76
2022/07/09 13:16:11;;;;;;;2.93;2.73;;;;;;;;;;5050431;28;20532;-76
2022/07/09 13:18:37;;;;;;;5.20;3.50;;;;;;;;;;5050297;28;20428;-78
2022/07/09 13:21:03;;;;;;;7.23;5.03;;;;;;;;;;5050196;28;20409;-77
2022/07/09 13:23:29;;;;;;;6.63;5.30;;;;;;;;;;5048869;28;20412;-76
2022/07/09 13:25:55;;;;;;;7.27;6.60;;;;;;;;;;5050204;28;21000;-77
2022/07/09 13:28:21;;;;;;;11.23;9.17;;;;;;;;;;5050155;28;20398;-77
2022/07/09 13:30:47;;;;;;;11.00;9.90;;;;;;;;;;5050210;28;20460;-80
2022/07/09 13:33:13;;;;;;;14.53;12.53;;;;;;;;;;5049593;28;20451;-77
2022/07/09 13:35:39;;;;;;;18.37;15.70;;;;;;;;;;5050279;28;20437;-77
2022/07/09 13:38:05;;;;;;;17.03;15.37;;;;;;;;;;5050205;28;20419;-77
2022/07/09 13:40:31;;;;;;;18.00;16.20;;;;;;;;;;5050213;28;20420;-77
2022/07/09 13:42:57;;;;;;;21.00;17.67;;;;;;;;;;5048776;28;20509;-76
2022/07/09 13:45:23;;;;;;;22.23;20.07;;;;;;;;;;5050310;28;20423;-76
2022/07/09 13:47:49;;;;;;;23.83;21.50;;;;;;;;;;5050145;28;20418;-76
2022/07/09 13:50:15;;;;;;;27.47;24.60;;;;;;;;;;5050294;28;20396;-76
2022/07/09 13:52:42;;;;;;;30.70;27.63;;;;;;;;;;5050075;28;20431;-76
2022/07/09 13:55:08;;;;;;;36.90;33.03;;;;;;;;;;5049506;28;20409;-77
2022/07/09 13:57:34;;;;;;;39.10;33.80;;;;;;;;;;5049989;28;20420;-76
2022/07/09 14:00:00;;;;;;;39.60;35.90;;;;;;;;;;5049927;28;20383;-76
2022/07/09 14:02:26;;;;;;;38.03;33.73;;;;;;;;;;5048710;28;20431;-76
2022/07/09 14:04:54;;;;;;;39.53;35.20;;;;;;;;;;5049615;28;20412;-76
2022/07/09 14:07:20;;;;;;;36.60;32.93;;;;;;;;;;5049930;28;20494;-76
2022/07/09 14:09:46;;;;;;;29.57;26.70;;;;;;;;;;5049987;28;20959;-76
2022/07/09 14:12:12;;;;;;;24.10;21.57;;;;;;;;;;5048636;28;20533;-75
2022/07/09 14:14:38;;;;;;;22.27;20.10;;;;;;;;;;5049416;28;20391;-76
2022/07/09 14:17:04;;;;;;;18.73;16.90;;;;;;;;;;5049744;28;20627;-76
2022/07/09 14:19:30;;;;;;;18.60;16.80;;;;;;;;;;5049720;28;20512;-76
2022/07/09 14:21:56;;;;;;;19.17;17.17;;;;;;;;;;5049983;28;20409;-75
2022/07/09 14:24:22;;;;;;;18.47;14.10;;;;;;;;;;5049382;28;20404;-75
2022/07/09 14:26:48;;;;;;;28.07;23.23;;;;;;;;;;5049585;28;20804;-76
2022/07/09 14:29:14;;;;;;;13.03;10.47;;;;;;;;;;5049599;28;20930;-77
2022/07/09 14:31:40;;;;;;;9.73;7.60;;;;;;;;;;5048087;28;20444;-76
2022/07/09 14:34:06;;;;;;;15.80;6.50;;;;;;;;;;5049098;28;20462;-75
2022/07/09 14:36:32;;;;;;;7.40;6.60;;;;;;;;;;5049429;28;20424;-76